sensor_id;sensor_type;location;lat;lon;timestamp;pressure;altitude;pressure_sealevel;temperature;humidity
70684;BME280;58263;48.146;11.440;2022-09-13T00:00:38;95417.63;;;13.17;70.12
70684;BME280;58263;48.146;11.440;2022-09-13T00:03:03;95418.09;;;13.09;70.76
70684;BME280;58263;48.146;11.440;2022-09-13T00:05:29;95417.97;;;12.99;70.89
70684;BME280;58263;48.146;11.440;2022-09-13T00:07:55;95418.03;;;13.04;70.59
70684;BME280;58263;48.146;11.440;2022-09-13T00:10:21;95416.56;;;13.18;69.66
70684;BME280;58263;48.146;11.440;2022-09-13T00:12:47;95416.84;;;13.22;69.33
70684;BME280;58263;48.146;11.440;2022-09-13T00:15:13;95399.25;;;13.09;69.68
70684;BME280;58263;48.146;11.440;2022-09-13T00:17:39;95397.66;;;12.86;70.98
70684;BME280;58263;48.146;11.440;2022-09-13T00:20:04;95395.91;;;12.75;71.34
70684;BME280;58263;48.146;11.440;2022-09-13T00:22:30;95401.16;;;12.87;70.85
70684;BME280;58263;48.146;11.440;2022-09-13T00:24:56;95396.22;;;12.78;70.72
70684;BME280;58263;48.146;11.440;2022-09-13T00:27:21;95385.47;;;12.78;70.91
70684;BME280;58263;48.146;11.440;2022-09-13T00:29:46;95387.16;;;12.84;70.23
70684;BME280;58263;48.146;11.440;2022-09-13T00:32:11;95380.84;;;12.74;71.00
70684;BME280;58263;48.146;11.440;2022-09-13T00:34:37;95387.16;;;12.84;70.20
70684;BME280;58263;48.146;11.440;2022-09-13T00:37:03;95386.63;;;12.88;69.74
70684;BME280;58263;48.146;11.440;2022-09-13T00:39:28;95384.47;;;12.62;71.22
70684;BME280;58263;48.146;11.440;2022-09-13T00:41:53;95379.50;;;12.49;71.66
70684;BME280;58263;48.146;11.440;2022-09-13T00:47:46;95395.84;;;12.42;72.04
70684;BME280;58263;48.146;11.440;2022-09-13T00:53:19;95388.53;;;12.65;70.83
70684;BME280;58263;48.146;11.440;2022-09-13T00:58:23;95390.31;;;12.32;71.48
70684;BME280;58263;48.146;11.440;2022-09-13T01:00:51;95380.56;;;12.26;71.88
70684;BME280;58263;48.146;11.440;2022-09-13T01:03:18;95378.44;;;12.28;71.48
70684;BME280;58263;48.146;11.440;2022-09-13T01:05:56;95372.31;;;12.32;70.81
70684;BME280;58263;48.146;11.440;2022-09-13T01:08:23;95362.31;;;12.28;71.02
70684;BME280;58263;48.146;11.440;2022-09-13T01:10:49;95358.38;;;12.36;70.90
70684;BME280;58263;48.146;11.440;2022-09-13T01:13:20;95359.31;;;12.46;70.08
70684;BME280;58263;48.146;11.440;2022-09-13T01:15:47;95355.44;;;12.37;70.00
70684;BME280;58263;48.146;11.440;2022-09-13T01:18:13;95354.16;;;12.23;70.98
70684;BME280;58263;48.146;11.440;2022-09-13T01:23:54;95352.72;;;12.37;70.02
70684;BME280;58263;48.146;11.440;2022-09-13T01:29:41;95351.00;;;12.26;71.11
70684;BME280;58263;48.146;11.440;2022-09-13T01:46:38;95343.19;;;11.85;72.26
70684;BME280;58263;48.146;11.440;2022-09-13T01:51:48;95348.28;;;11.64;73.07
70684;BME280;58263;48.146;11.440;2022-09-13T01:57:14;95337.16;;;11.95;71.51
70684;BME280;58263;48.146;11.440;2022-09-13T01:59:53;95341.22;;;11.80;72.25
70684;BME280;58263;48.146;11.440;2022-09-13T02:02:34;95339.84;;;11.95;71.29
70684;BME280;58263;48.146;11.440;2022-09-13T02:05:29;95338.44;;;11.92;71.31
70684;BME280;58263;48.146;11.440;2022-09-13T02:07:59;95337.81;;;11.85;71.52
70684;BME280;58263;48.146;11.440;2022-09-13T02:10:36;95333.69;;;11.77;72.02
70684;BME280;58263;48.146;11.440;2022-09-13T02:13:09;95336.72;;;11.64;72.67
70684;BME280;58263;48.146;11.440;2022-09-13T02:15:40;95342.50;;;11.56;73.12
70684;BME280;58263;48.146;11.440;2022-09-13T02:18:11;95342.59;;;11.61;73.24
70684;BME280;58263;48.146;11.440;2022-09-13T02:20:43;95344.22;;;11.62;72.96
70684;BME280;58263;48.146;11.440;2022-09-13T02:23:14;95349.72;;;11.72;72.82
70684;BME280;58263;48.146;11.440;2022-09-13T02:25:41;95348.88;;;11.49;73.70
70684;BME280;58263;48.146;11.440;2022-09-13T02:28:14;95348.94;;;11.55;73.37
70684;BME280;58263;48.146;11.440;2022-09-13T02:30:46;95352.38;;;11.50;73.50
70684;BME280;58263;48.146;11.440;2022-09-13T02:33:17;95351.84;;;11.70;72.63
70684;BME280;58263;48.146;11.440;2022-09-13T02:35:55;95351.34;;;11.73;72.52
70684;BME280;58263;48.146;11.440;2022-09-13T02:38:31;95346.31;;;11.60;72.71
70684;BME280;58263;48.146;11.440;2022-09-13T02:41:06;95343.22;;;11.68;72.86
70684;BME280;58263;48.146;11.440;2022-09-13T02:43:37;95341.09;;;11.70;71.99
70684;BME280;58263;48.146;11.440;2022-09-13T02:46:33;95336.53;;;11.71;72.48
70684;BME280;58263;48.146;11.440;2022-09-13T02:49:11;95352.19;;;11.40;73.83
70684;BME280;58263;48.146;11.440;2022-09-13T02:51:54;95347.88;;;11.56;74.07
70684;BME280;58263;48.146;11.440;2022-09-13T02:54:58;95353.50;;;11.71;72.92
70684;BME280;58263;48.146;11.440;2022-09-13T02:57:37;95341.59;;;11.67;72.89
70684;BME280;58263;48.146;11.440;2022-09-13T03:00:04;95339.66;;;11.62;73.11
70684;BME280;58263;48.146;11.440;2022-09-13T03:02:33;95346.97;;;11.67;72.90
70684;BME280;58263;48.146;11.440;2022-09-13T03:05:01;95350.94;;;11.81;72.15
70684;BME280;58263;48.146;11.440;2022-09-13T03:07:27;95353.88;;;11.63;72.74
70684;BME280;58263;48.146;11.440;2022-09-13T03:10:02;95357.41;;;11.46;73.51
70684;BME280;58263;48.146;11.440;2022-09-13T03:15:19;95358.94;;;11.42;73.91
70684;BME280;58263;48.146;11.440;2022-09-13T03:28:54;95345.78;;;11.58;72.92
70684;BME280;58263;48.146;11.440;2022-09-13T03:36:57;95333.66;;;11.38;73.23
70684;BME280;58263;48.146;11.440;2022-09-13T03:39:38;95331.03;;;11.43;73.59
70684;BME280;58263;48.146;11.440;2022-09-13T03:42:12;95335.06;;;11.63;72.54
70684;BME280;58263;48.146;11.440;2022-09-13T03:44:41;95337.06;;;11.50;72.93
70684;BME280;58263;48.146;11.440;2022-09-13T03:47:09;95352.81;;;11.64;72.14
70684;BME280;58263;48.146;11.440;2022-09-13T03:49:36;95352.81;;;11.64;72.17
70684;BME280;58263;48.146;11.440;2022-09-13T03:52:03;95356.41;;;11.70;71.81
70684;BME280;58263;48.146;11.440;2022-09-13T03:54:30;95355.38;;;11.54;73.02
70684;BME280;58263;48.146;11.440;2022-09-13T03:57:09;95356.09;;;11.49;73.08
70684;BME280;58263;48.146;11.440;2022-09-13T03:59:37;95356.25;;;11.59;72.62
70684;BME280;58263;48.146;11.440;2022-09-13T04:02:05;95352.34;;;11.67;72.67
70684;BME280;58263;48.146;11.440;2022-09-13T04:04:31;95352.63;;;11.48;74.08
70684;BME280;58263;48.146;11.440;2022-09-13T04:06:57;95360.81;;;11.59;74.72
70684;BME280;58263;48.146;11.440;2022-09-13T04:09:27;95354.97;;;11.62;74.78
70684;BME280;58263;48.146;11.440;2022-09-13T04:11:52;95349.34;;;11.63;74.80
70684;BME280;58263;48.146;11.440;2022-09-13T04:14:18;95349.09;;;11.65;74.61
70684;BME280;58263;48.146;11.440;2022-09-13T04:16:43;95351.69;;;11.60;74.83
70684;BME280;58263;48.146;11.440;2022-09-13T04:19:08;95349.94;;;11.48;75.52
70684;BME280;58263;48.146;11.440;2022-09-13T04:21:34;95354.97;;;11.62;74.54
70684;BME280;58263;48.146;11.440;2022-09-13T04:24:00;95348.38;;;11.53;75.49
70684;BME280;58263;48.146;11.440;2022-09-13T04:26:25;95341.28;;;11.46;75.25
70684;BME280;58263;48.146;11.440;2022-09-13T04:28:52;95348.00;;;11.44;75.52
70684;BME280;58263;48.146;11.440;2022-09-13T04:31:17;95347.16;;;11.60;74.44
70684;BME280;58263;48.146;11.440;2022-09-13T04:33:42;95350.66;;;11.61;74.10
70684;BME280;58263;48.146;11.440;2022-09-13T04:36:08;95352.03;;;11.46;74.98
70684;BME280;58263;48.146;11.440;2022-09-13T04:38:33;95353.19;;;11.33;75.40
70684;BME280;58263;48.146;11.440;2022-09-13T04:40:58;95360.84;;;11.25;76.11
70684;BME280;58263;48.146;11.440;2022-09-13T04:43:24;95359.63;;;11.49;74.49
70684;BME280;58263;48.146;11.440;2022-09-13T04:45:50;95354.31;;;11.55;74.17
70684;BME280;58263;48.146;11.440;2022-09-13T04:48:16;95352.81;;;11.64;73.80
70684;BME280;58263;48.146;11.440;2022-09-13T04:50:41;95358.00;;;11.48;74.92
70684;BME280;58263;48.146;11.440;2022-09-13T04:53:07;95356.63;;;11.29;75.96
70684;BME280;58263;48.146;11.440;2022-09-13T04:55:32;95360.13;;;11.29;76.34
70684;BME280;58263;48.146;11.440;2022-09-13T04:57:57;95359.06;;;11.30;76.61
70684;BME280;58263;48.146;11.440;2022-09-13T05:00:22;95362.00;;;11.29;76.50
70684;BME280;58263;48.146;11.440;2022-09-13T05:02:54;95366.53;;;11.28;76.83
70684;BME280;58263;48.146;11.440;2022-09-13T05:05:20;95360.66;;;11.31;76.68
70684;BME280;58263;48.146;11.440;2022-09-13T05:07:49;95365.22;;;11.31;76.94
70684;BME280;58263;48.146;11.440;2022-09-13T05:10:14;95363.69;;;11.35;76.89
70684;BME280;58263;48.146;11.440;2022-09-13T05:12:40;95362.63;;;11.36;76.79
70684;BME280;58263;48.146;11.440;2022-09-13T05:15:05;95369.84;;;11.36;77.11
70684;BME280;58263;48.146;11.440;2022-09-13T05:17:31;95358.41;;;11.40;76.60
70684;BME280;58263;48.146;11.440;2022-09-13T05:19:56;95367.69;;;11.49;77.18
70684;BME280;58263;48.146;11.440;2022-09-13T05:22:21;95366.84;;;11.49;77.56
70684;BME280;58263;48.146;11.440;2022-09-13T05:24:47;95383.78;;;11.49;77.20
70684;BME280;58263;48.146;11.440;2022-09-13T05:27:12;95377.94;;;11.53;77.10
70684;BME280;58263;48.146;11.440;2022-09-13T05:29:37;95378.06;;;11.63;77.12
70684;BME280;58263;48.146;11.440;2022-09-13T05:32:02;95382.47;;;11.69;77.67
70684;BME280;58263;48.146;11.440;2022-09-13T05:34:28;95368.19;;;11.86;76.69
70684;BME280;58263;48.146;11.440;2022-09-13T05:36:53;95368.91;;;11.98;76.28
70684;BME280;58263;48.146;11.440;2022-09-13T05:39:19;95364.16;;;12.05;76.23
70684;BME280;58263;48.146;11.440;2022-09-13T05:41:46;95367.44;;;12.07;76.33
70684;BME280;58263;48.146;11.440;2022-09-13T05:44:12;95362.84;;;12.08;76.90
70684;BME280;58263;48.146;11.440;2022-09-13T05:46:37;95364.38;;;12.21;76.47
70684;BME280;58263;48.146;11.440;2022-09-13T05:49:02;95365.56;;;12.30;76.40
70684;BME280;58263;48.146;11.440;2022-09-13T05:51:28;95368.88;;;12.37;76.29
70684;BME280;58263;48.146;11.440;2022-09-13T05:53:53;95366.69;;;12.34;77.35
70684;BME280;58263;48.146;11.440;2022-09-13T05:56:21;95371.91;;;12.46;76.93
70684;BME280;58263;48.146;11.440;2022-09-13T05:58:47;95371.72;;;12.52;77.18
70684;BME280;58263;48.146;11.440;2022-09-13T06:01:15;95373.44;;;12.59;76.99
70684;BME280;58263;48.146;11.440;2022-09-13T06:03:41;95376.19;;;12.64;77.38
70684;BME280;58263;48.146;11.440;2022-09-13T06:06:07;95375.47;;;12.74;76.67
70684;BME280;58263;48.146;11.440;2022-09-13T06:08:33;95369.91;;;12.85;77.32
70684;BME280;58263;48.146;11.440;2022-09-13T06:11:04;95370.59;;;12.98;78.56
70684;BME280;58263;48.146;11.440;2022-09-13T06:13:29;95376.88;;;13.09;78.17
70684;BME280;58263;48.146;11.440;2022-09-13T06:15:56;95380.50;;;13.25;78.03
70684;BME280;58263;48.146;11.440;2022-09-13T06:18:22;95383.88;;;13.37;77.75
70684;BME280;58263;48.146;11.440;2022-09-13T06:20:49;95377.00;;;13.51;77.34
70684;BME280;58263;48.146;11.440;2022-09-13T06:23:14;95371.44;;;13.68;77.48
70684;BME280;58263;48.146;11.440;2022-09-13T06:25:40;95373.16;;;13.85;77.49
70684;BME280;58263;48.146;11.440;2022-09-13T06:28:05;95370.28;;;13.97;77.51
70684;BME280;58263;48.146;11.440;2022-09-13T06:30:31;95361.19;;;14.13;76.98
70684;BME280;58263;48.146;11.440;2022-09-13T06:32:56;95351.59;;;14.33;76.23
70684;BME280;58263;48.146;11.440;2022-09-13T06:35:22;95361.34;;;14.54;75.06
70684;BME280;58263;48.146;11.440;2022-09-13T06:37:47;95367.94;;;14.74;75.17
70684;BME280;58263;48.146;11.440;2022-09-13T06:40:13;95366.34;;;14.94;74.25
70684;BME280;58263;48.146;11.440;2022-09-13T06:42:38;95364.50;;;15.10;74.30
70684;BME280;58263;48.146;11.440;2022-09-13T06:45:04;95368.81;;;15.21;74.26
70684;BME280;58263;48.146;11.440;2022-09-13T06:47:30;95371.81;;;15.45;72.69
70684;BME280;58263;48.146;11.440;2022-09-13T06:49:56;95370.44;;;15.68;72.10
70684;BME280;58263;48.146;11.440;2022-09-13T06:52:22;95372.06;;;15.85;72.39
70684;BME280;58263;48.146;11.440;2022-09-13T06:54:47;95365.81;;;16.10;70.50
70684;BME280;58263;48.146;11.440;2022-09-13T06:57:12;95354.09;;;16.30;69.57
70684;BME280;58263;48.146;11.440;2022-09-13T06:59:38;95362.94;;;16.51;69.66
70684;BME280;58263;48.146;11.440;2022-09-13T07:02:03;95357.44;;;16.67;69.24
70684;BME280;58263;48.146;11.440;2022-09-13T07:04:28;95357.91;;;16.89;67.77
70684;BME280;58263;48.146;11.440;2022-09-13T07:06:56;95353.72;;;17.08;66.38
70684;BME280;58263;48.146;11.440;2022-09-13T07:09:22;95357.59;;;17.36;66.18
70684;BME280;58263;48.146;11.440;2022-09-13T07:11:50;95366.63;;;17.55;65.23
70684;BME280;58263;48.146;11.440;2022-09-13T07:14:20;95369.13;;;17.81;64.68
70684;BME280;58263;48.146;11.440;2022-09-13T07:16:46;95367.56;;;18.04;66.02
70684;BME280;58263;48.146;11.440;2022-09-13T07:19:16;95365.63;;;18.34;63.68
70684;BME280;58263;48.146;11.440;2022-09-13T07:21:42;95365.03;;;18.62;63.22
70684;BME280;58263;48.146;11.440;2022-09-13T07:24:08;95357.63;;;18.86;62.28
70684;BME280;58263;48.146;11.440;2022-09-13T07:26:34;95357.97;;;19.04;61.18
70684;BME280;58263;48.146;11.440;2022-09-13T07:29:01;95354.50;;;19.17;59.58
70684;BME280;58263;48.146;11.440;2022-09-13T07:31:32;95355.72;;;19.44;58.91
70684;BME280;58263;48.146;11.440;2022-09-13T07:34:02;95346.50;;;19.59;57.75
70684;BME280;58263;48.146;11.440;2022-09-13T07:36:30;95346.75;;;19.76;58.16
70684;BME280;58263;48.146;11.440;2022-09-13T07:38:56;95353.25;;;19.95;56.50
70684;BME280;58263;48.146;11.440;2022-09-13T07:41:23;95351.78;;;20.16;56.29
70684;BME280;58263;48.146;11.440;2022-09-13T07:43:49;95355.03;;;20.32;55.44
70684;BME280;58263;48.146;11.440;2022-09-13T07:46:23;95360.47;;;20.46;53.71
70684;BME280;58263;48.146;11.440;2022-09-13T07:48:51;95363.91;;;20.66;53.39
70684;BME280;58263;48.146;11.440;2022-09-13T07:51:20;95361.88;;;20.85;55.36
70684;BME280;58263;48.146;11.440;2022-09-13T07:53:46;95363.94;;;21.16;54.51
70684;BME280;58263;48.146;11.440;2022-09-13T07:56:35;95353.97;;;21.34;52.05
70684;BME280;58263;48.146;11.440;2022-09-13T07:59:01;95352.78;;;21.49;49.91
70684;BME280;58263;48.146;11.440;2022-09-13T08:01:29;95351.97;;;21.94;50.13
70684;BME280;58263;48.146;11.440;2022-09-13T08:04:00;95354.84;;;22.20;49.82
70684;BME280;58263;48.146;11.440;2022-09-13T08:06:27;95359.97;;;22.53;50.36
70684;BME280;58263;48.146;11.440;2022-09-13T08:08:53;95368.56;;;22.78;49.92
70684;BME280;58263;48.146;11.440;2022-09-13T08:11:25;95365.38;;;22.85;48.30
70684;BME280;58263;48.146;11.440;2022-09-13T08:13:52;95362.16;;;22.91;46.38
70684;BME280;58263;48.146;11.440;2022-09-13T08:16:20;95356.38;;;23.10;46.62
70684;BME280;58263;48.146;11.440;2022-09-13T08:18:47;95353.34;;;23.03;46.42
70684;BME280;58263;48.146;11.440;2022-09-13T08:21:13;95352.72;;;23.24;46.90
70684;BME280;58263;48.146;11.440;2022-09-13T08:23:39;95351.91;;;23.41;47.03
70684;BME280;58263;48.146;11.440;2022-09-13T08:26:05;95355.00;;;23.48;46.76
70684;BME280;58263;48.146;11.440;2022-09-13T08:28:33;95351.91;;;23.41;44.63
70684;BME280;58263;48.146;11.440;2022-09-13T08:31:07;95349.34;;;23.53;45.49
70684;BME280;58263;48.146;11.440;2022-09-13T08:33:34;95351.59;;;23.60;45.13
70684;BME280;58263;48.146;11.440;2022-09-13T08:36:00;95358.53;;;23.57;46.64
70684;BME280;58263;48.146;11.440;2022-09-13T08:38:26;95351.75;;;23.63;45.47
70684;BME280;58263;48.146;11.440;2022-09-13T08:46:35;95362.50;;;24.04;43.75
70684;BME280;58263;48.146;11.440;2022-09-13T08:49:06;95356.00;;;24.17;44.69
70684;BME280;58263;48.146;11.440;2022-09-13T08:51:40;95354.63;;;24.41;42.44
70684;BME280;58263;48.146;11.440;2022-09-13T08:54:11;95350.06;;;24.62;42.31
70684;BME280;58263;48.146;11.440;2022-09-13T08:56:42;95350.66;;;24.98;42.67
70684;BME280;58263;48.146;11.440;2022-09-13T09:04:57;95337.25;;;25.81;40.79
70684;BME280;58263;48.146;11.440;2022-09-13T09:07:36;95335.50;;;25.76;40.04
70684;BME280;58263;48.146;11.440;2022-09-13T09:10:16;95344.47;;;25.86;38.78
70684;BME280;58263;48.146;11.440;2022-09-13T09:12:48;95345.75;;;26.46;39.07
70684;BME280;58263;48.146;11.440;2022-09-13T09:15:22;95346.41;;;26.68;38.17
70684;BME280;58263;48.146;11.440;2022-09-13T09:18:17;95351.03;;;26.76;38.12
70684;BME280;58263;48.146;11.440;2022-09-13T09:20:47;95338.53;;;26.91;37.40
70684;BME280;58263;48.146;11.440;2022-09-13T09:26:22;95338.78;;;26.74;37.89
70684;BME280;58263;48.146;11.440;2022-09-13T09:28:59;95335.63;;;27.12;37.29
70684;BME280;58263;48.146;11.440;2022-09-13T09:37:04;95331.78;;;27.42;36.24
70684;BME280;58263;48.146;11.440;2022-09-13T09:39:32;95329.75;;;27.67;36.66
70684;BME280;58263;48.146;11.440;2022-09-13T09:42:04;95326.25;;;27.54;36.56
70684;BME280;58263;48.146;11.440;2022-09-13T09:44:34;95334.84;;;27.53;35.40
70684;BME280;58263;48.146;11.440;2022-09-13T09:47:10;95333.41;;;27.30;36.06
70684;BME280;58263;48.146;11.440;2022-09-13T09:52:38;95328.44;;;27.77;35.51
70684;BME280;58263;48.146;11.440;2022-09-13T09:55:38;95318.72;;;28.11;34.53
70684;BME280;58263;48.146;11.440;2022-09-13T09:58:08;95309.41;;;28.48;35.73
70684;BME280;58263;48.146;11.440;2022-09-13T10:00:49;95304.94;;;28.75;34.71
70684;BME280;58263;48.146;11.440;2022-09-13T10:03:27;95296.97;;;28.70;34.01
70684;BME280;58263;48.146;11.440;2022-09-13T10:06:13;95297.13;;;28.77;34.34
70684;BME280;58263;48.146;11.440;2022-09-13T10:08:45;95290.16;;;29.39;33.91
70684;BME280;58263;48.146;11.440;2022-09-13T10:11:11;95287.97;;;29.67;32.43
70684;BME280;58263;48.146;11.440;2022-09-13T10:13:37;95289.81;;;29.83;33.37
70684;BME280;58263;48.146;11.440;2022-09-13T10:16:08;95288.91;;;30.18;33.18
70684;BME280;58263;48.146;11.440;2022-09-13T10:18:47;95283.59;;;30.82;31.97
70684;BME280;58263;48.146;11.440;2022-09-13T10:23:45;95287.09;;;30.29;32.34
70684;BME280;58263;48.146;11.440;2022-09-13T10:26:19;95285.63;;;30.59;32.07
70684;BME280;58263;48.146;11.440;2022-09-13T10:28:59;95282.19;;;32.25;30.77
70684;BME280;58263;48.146;11.440;2022-09-13T10:31:29;95281.63;;;34.22;25.17
70684;BME280;58263;48.146;11.440;2022-09-13T10:34:01;95286.06;;;34.88;24.13
70684;BME280;58263;48.146;11.440;2022-09-13T10:36:31;95278.28;;;35.57;22.92
70684;BME280;58263;48.146;11.440;2022-09-13T10:39:00;95282.09;;;35.99;23.20
70684;BME280;58263;48.146;11.440;2022-09-13T10:41:29;95282.44;;;37.48;23.46
70684;BME280;58263;48.146;11.440;2022-09-13T10:44:01;95273.69;;;37.74;21.83
70684;BME280;58263;48.146;11.440;2022-09-13T10:46:30;95267.22;;;37.84;20.73
70684;BME280;58263;48.146;11.440;2022-09-13T10:48:56;95273.31;;;38.33;20.96
70684;BME280;58263;48.146;11.440;2022-09-13T10:51:31;95274.50;;;40.08;20.19
70684;BME280;58263;48.146;11.440;2022-09-13T10:56:40;95268.72;;;40.81;18.57
70684;BME280;58263;48.146;11.440;2022-09-13T10:59:28;95265.91;;;40.31;18.81
70684;BME280;58263;48.146;11.440;2022-09-13T11:05:28;95257.91;;;41.42;18.89
70684;BME280;58263;48.146;11.440;2022-09-13T11:08:06;95249.69;;;41.47;15.87
70684;BME280;58263;48.146;11.440;2022-09-13T11:10:47;95255.19;;;42.58;15.15
70684;BME280;58263;48.146;11.440;2022-09-13T11:16:25;95251.81;;;41.98;16.20
70684;BME280;58263;48.146;11.440;2022-09-13T11:30:19;95245.53;;;39.34;19.58
70684;BME280;58263;48.146;11.440;2022-09-13T11:45:54;95236.72;;;34.60;25.73
70684;BME280;58263;48.146;11.440;2022-09-13T11:51:22;95243.44;;;34.66;26.16
70684;BME280;58263;48.146;11.440;2022-09-13T11:56:44;95241.81;;;35.04;25.76
70684;BME280;58263;48.146;11.440;2022-09-13T12:01:48;95249.00;;;34.77;25.42
70684;BME280;58263;48.146;11.440;2022-09-13T12:04:25;95241.09;;;34.35;26.19
70684;BME280;58263;48.146;11.440;2022-09-13T12:07:00;95243.06;;;34.53;26.37
70684;BME280;58263;48.146;11.440;2022-09-13T12:09:52;95238.63;;;35.10;24.04
70684;BME280;58263;48.146;11.440;2022-09-13T12:12:20;95244.59;;;35.97;24.84
70684;BME280;58263;48.146;11.440;2022-09-13T12:17:46;95229.44;;;40.28;17.95
70684;BME280;58263;48.146;11.440;2022-09-13T12:20:30;95226.22;;;41.93;17.68
70684;BME280;58263;48.146;11.440;2022-09-13T12:22:59;95225.44;;;42.31;18.04
70684;BME280;58263;48.146;11.440;2022-09-13T12:25:44;95224.53;;;43.08;16.00
70684;BME280;58263;48.146;11.440;2022-09-13T12:28:28;95219.63;;;43.75;14.99
70684;BME280;58263;48.146;11.440;2022-09-13T12:31:16;95222.41;;;42.12;16.91
70684;BME280;58263;48.146;11.440;2022-09-13T12:33:44;95224.13;;;43.40;15.64
70684;BME280;58263;48.146;11.440;2022-09-13T12:39:28;95216.63;;;44.41;13.67
70684;BME280;58263;48.146;11.440;2022-09-13T12:42:21;95213.13;;;45.33;14.19
70684;BME280;58263;48.146;11.440;2022-09-13T12:56:43;95202.72;;;45.39;13.15
70684;BME280;58263;48.146;11.440;2022-09-13T12:59:24;95207.28;;;46.08;13.74
70684;BME280;58263;48.146;11.440;2022-09-13T13:01:53;95211.38;;;43.58;14.11
70684;BME280;58263;48.146;11.440;2022-09-13T13:04:20;95199.84;;;41.99;17.08
70684;BME280;58263;48.146;11.440;2022-09-13T13:06:51;95207.00;;;41.49;16.56
70684;BME280;58263;48.146;11.440;2022-09-13T13:11:55;95202.94;;;39.19;18.69
70684;BME280;58263;48.146;11.440;2022-09-13T13:23:20;95209.13;;;44.06;14.45
70684;BME280;58263;48.146;11.440;2022-09-13T13:25:59;95207.94;;;44.26;14.22
70684;BME280;58263;48.146;11.440;2022-09-13T13:33:52;95198.41;;;43.92;14.11
70684;BME280;58263;48.146;11.440;2022-09-13T13:38:48;95185.78;;;43.84;14.08
70684;BME280;58263;48.146;11.440;2022-09-13T13:46:49;95191.75;;;42.75;15.51
70684;BME280;58263;48.146;11.440;2022-09-13T13:59:52;95167.16;;;42.15;16.29
70684;BME280;58263;48.146;11.440;2022-09-13T14:02:22;95163.94;;;40.77;16.83
70684;BME280;58263;48.146;11.440;2022-09-13T14:18:58;95154.25;;;34.87;25.56
70684;BME280;58263;48.146;11.440;2022-09-13T14:21:29;95151.16;;;34.39;25.87
70684;BME280;58263;48.146;11.440;2022-09-13T14:24:19;95152.00;;;33.89;25.80
70684;BME280;58263;48.146;11.440;2022-09-13T14:26:48;95159.16;;;33.79;26.83
70684;BME280;58263;48.146;11.440;2022-09-13T14:29:17;95154.66;;;34.79;24.46
70684;BME280;58263;48.146;11.440;2022-09-13T14:31:51;95150.19;;;35.14;24.87
70684;BME280;58263;48.146;11.440;2022-09-13T14:34:27;95155.19;;;33.98;25.35
70684;BME280;58263;48.146;11.440;2022-09-13T14:36:56;95152.00;;;33.78;28.38
70684;BME280;58263;48.146;11.440;2022-09-13T14:39:22;95154.66;;;33.34;26.63
70684;BME280;58263;48.146;11.440;2022-09-13T14:41:57;95144.50;;;32.76;28.42
70684;BME280;58263;48.146;11.440;2022-09-13T14:44:24;95137.28;;;32.67;27.27
70684;BME280;58263;48.146;11.440;2022-09-13T14:46:58;95129.88;;;32.97;27.71
70684;BME280;58263;48.146;11.440;2022-09-13T14:49:29;95121.03;;;32.66;27.05
70684;BME280;58263;48.146;11.440;2022-09-13T14:52:02;95119.94;;;32.78;28.19
70684;BME280;58263;48.146;11.440;2022-09-13T14:54:41;95114.94;;;32.39;28.35
70684;BME280;58263;48.146;11.440;2022-09-13T14:57:18;95119.72;;;31.90;28.60
70684;BME280;58263;48.146;11.440;2022-09-13T14:59:49;95111.28;;;31.72;28.65
70684;BME280;58263;48.146;11.440;2022-09-13T15:02:22;95118.34;;;32.14;29.55
70684;BME280;58263;48.146;11.440;2022-09-13T15:04:55;95109.06;;;31.95;29.34
70684;BME280;58263;48.146;11.440;2022-09-13T15:07:31;95106.91;;;31.29;28.07
70684;BME280;58263;48.146;11.440;2022-09-13T15:15:37;95100.91;;;30.02;31.74
70684;BME280;58263;48.146;11.440;2022-09-13T15:21:01;95108.38;;;29.75;32.88
70684;BME280;58263;48.146;11.440;2022-09-13T15:23:30;95104.06;;;29.50;33.35
70684;BME280;58263;48.146;11.440;2022-09-13T15:26:08;95101.53;;;29.42;33.15
70684;BME280;58263;48.146;11.440;2022-09-13T15:31:05;95093.19;;;29.18;33.06
70684;BME280;58263;48.146;11.440;2022-09-13T15:33:33;95091.72;;;29.02;32.55
70684;BME280;58263;48.146;11.440;2022-09-13T15:36:28;95086.06;;;28.75;34.00
70684;BME280;58263;48.146;11.440;2022-09-13T15:44:00;95073.97;;;28.05;36.35
70684;BME280;58263;48.146;11.440;2022-09-13T15:46:26;95078.09;;;28.14;37.82
70684;BME280;58263;48.146;11.440;2022-09-13T15:49:00;95065.78;;;27.92;37.25
70684;BME280;58263;48.146;11.440;2022-09-13T15:51:27;95066.16;;;27.75;36.66
70684;BME280;58263;48.146;11.440;2022-09-13T15:53:53;95068.84;;;27.55;37.93
70684;BME280;58263;48.146;11.440;2022-09-13T15:56:27;95061.50;;;27.43;37.52
70684;BME280;58263;48.146;11.440;2022-09-13T15:58:55;95063.78;;;27.41;39.67
70684;BME280;58263;48.146;11.440;2022-09-13T16:01:20;95070.06;;;27.26;40.16
70684;BME280;58263;48.146;11.440;2022-09-13T16:03:46;95066.94;;;27.11;39.14
70684;BME280;58263;48.146;11.440;2022-09-13T16:06:11;95064.81;;;27.05;39.38
70684;BME280;58263;48.146;11.440;2022-09-13T16:08:37;95071.63;;;26.95;39.38
70684;BME280;58263;48.146;11.440;2022-09-13T16:11:03;95067.47;;;26.85;41.49
70684;BME280;58263;48.146;11.440;2022-09-13T16:13:28;95064.06;;;26.76;41.45
70684;BME280;58263;48.146;11.440;2022-09-13T16:15:54;95058.13;;;26.74;39.74
70684;BME280;58263;48.146;11.440;2022-09-13T16:18:21;95057.31;;;26.73;40.45
70684;BME280;58263;48.146;11.440;2022-09-13T16:20:47;95049.63;;;26.66;42.42
70684;BME280;58263;48.146;11.440;2022-09-13T16:23:12;95041.88;;;26.56;40.99
70684;BME280;58263;48.146;11.440;2022-09-13T16:25:38;95048.78;;;26.50;42.07
70684;BME280;58263;48.146;11.440;2022-09-13T16:28:04;95052.72;;;26.37;41.63
70684;BME280;58263;48.146;11.440;2022-09-13T16:30:29;95052.41;;;26.38;41.78